Time;durP1;ratioP1;P1;durP2;ratioP2;P2;SDS_P1;SDS_P2;PMS_P1;PMS_P2;Temp;Humidity;BMP_temperature;BMP_pressure;BME280_temperature;BME280_humidity;BME280_pressure;Samples;Min_cycle;Max_cycle;Signal;HPM_P1;HPM_P2
2021/08/28 00:00:21;;;;;;;;;;;;;;;14.12;nan;100561.00;5034565;28;21639;-83
2021/08/28 00:02:46;;;;;;;;;;;;;;;14.09;nan;100556.84;5050360;28;19913;-83
2021/08/28 00:05:12;;;;;;;5.53;4.30;;;;;;;14.01;nan;100560.38;5053010;28;19920;-83
2021/08/28 00:07:38;;;;;;;5.43;4.07;;;;;;;13.95;nan;100557.59;5052880;28;20299;-84
2021/08/28 00:10:05;;;;;;;6.07;4.22;;;;;;;13.94;nan;100561.22;5052166;28;20052;-83
2021/08/28 00:12:31;;;;;;;4.75;4.05;;;;;;;13.89;nan;100564.41;5061279;28;20029;-83
2021/08/28 00:14:57;;;;;;;5.60;4.13;;;;;;;13.91;nan;100566.91;5033408;28;20059;-83
2021/08/28 00:17:23;;;;;;;3.75;3.05;;;;;;;13.95;nan;100569.03;5051818;28;20044;-84
2021/08/28 00:19:49;;;;;;;4.25;3.60;;;;;;;13.99;nan;100566.84;5052681;28;20096;-84
2021/08/28 00:22:14;;;;;;;5.85;4.25;;;;;;;14.02;nan;100555.91;5053547;28;20080;-83
2021/08/28 00:24:40;;;;;;;4.85;4.30;;;;;;;13.96;nan;100559.22;5036994;28;20045;-81
2021/08/28 00:27:05;;;;;;;5.80;4.47;;;;;;;13.91;nan;100562.41;5027188;28;20105;-82
2021/08/28 00:29:30;;;;;;;4.55;3.53;;;;;;;13.94;nan;100558.56;5036266;28;20041;-81
2021/08/28 00:31:55;;;;;;;5.22;3.80;;;;;;;13.95;nan;100555.75;5056781;28;20029;-82
2021/08/28 00:34:21;;;;;;;3.88;3.45;;;;;;;13.98;nan;100552.75;5051738;28;20048;-81
2021/08/28 00:36:46;;;;;;;4.72;3.30;;;;;;;14.00;nan;100555.22;5053515;28;20037;-81
2021/08/28 00:39:11;;;;;;;5.85;4.00;;;;;;;14.00;nan;100548.06;5056059;28;20106;-83
2021/08/28 00:41:37;;;;;;;4.70;4.20;;;;;;;13.99;nan;100549.09;5055533;28;20063;-81
2021/08/28 00:44:03;;;;;;;5.57;3.97;;;;;;;14.01;nan;100555.06;5054629;28;20097;-83
2021/08/28 00:46:28;;;;;;;5.38;4.10;;;;;;;14.04;nan;100545.91;5055111;28;20033;-82
2021/08/28 00:48:54;;;;;;;4.10;3.33;;;;;;;14.08;nan;100551.69;5028232;28;20091;-81
2021/08/28 00:51:19;;;;;;;4.53;3.70;;;;;;;14.11;nan;100546.03;5053150;28;20055;-82
2021/08/28 00:53:47;;;;;;;4.90;4.03;;;;;;;14.13;nan;100541.38;5053447;28;20094;-81
2021/08/28 00:56:12;;;;;;;5.97;4.15;;;;;;;14.14;nan;100551.03;5030734;28;20038;-81
2021/08/28 00:58:38;;;;;;;4.80;4.30;;;;;;;14.14;nan;100546.53;5035637;28;20103;-82
2021/08/28 01:01:08;;;;;;;4.80;4.05;;;;;;;14.17;nan;100548.81;5053406;28;20431;-82
2021/08/28 01:03:34;;;;;;;4.10;3.70;;;;;;;14.19;nan;100552.13;5054483;28;20033;-82
2021/08/28 01:06:12;;;;;;;5.07;3.70;;;;;;;14.21;nan;100549.31;5057702;28;20045;-81
2021/08/28 01:08:48;;;;;;;4.93;3.67;;;;;;;14.26;nan;100552.28;5057131;28;20041;-82
2021/08/28 01:11:25;;;;;;;4.70;4.20;;;;;;;14.24;nan;100547.13;5057548;28;20035;-82
2021/08/28 01:14:03;;;;;;;5.50;3.67;;;;;;;14.26;nan;100546.13;5055655;28;20052;-83
2021/08/28 01:16:31;;;;;;;5.72;4.40;;;;;;;14.25;nan;100550.59;5056474;28;20057;-82
2021/08/28 01:18:57;;;;;;;4.90;4.30;;;;;;;14.23;nan;100550.78;5058914;28;20521;-81
2021/08/28 01:21:30;;;;;;;5.07;4.10;;;;;;;14.22;nan;100549.13;5057527;28;20100;-80
2021/08/28 01:23:59;;;;;;;4.68;4.10;;;;;;;14.23;nan;100548.13;5057642;28;20045;-82
2021/08/28 01:26:30;;;;;;;4.75;3.80;;;;;;;14.22;nan;100550.97;5057477;28;20055;-82
2021/08/28 01:29:16;;;;;;;4.38;3.72;;;;;;;14.26;nan;100554.09;5058172;28;20040;-85
2021/08/28 01:31:43;;;;;;;4.88;3.53;;;;;;;14.29;nan;100557.22;5051973;28;20041;-82
2021/08/28 01:34:09;;;;;;;5.95;4.40;;;;;;;14.30;nan;100558.91;5052348;28;20068;-83
2021/08/28 01:36:34;;;;;;;4.22;3.50;;;;;;;14.31;nan;100557.06;5043780;28;20045;-83
2021/08/28 01:39:01;;;;;;;5.88;3.80;;;;;;;14.31;nan;100563.22;5065011;28;20187;-84
2021/08/28 01:41:27;;;;;;;4.10;3.58;;;;;;;14.34;nan;100557.53;5056343;28;20866;-84
2021/08/28 01:43:53;;;;;;;4.43;3.53;;;;;;;14.36;nan;100555.53;5038498;28;20130;-84
2021/08/28 01:46:18;;;;;;;5.07;3.58;;;;;;;14.38;nan;100560.69;5056136;28;20040;-82
2021/08/28 01:48:46;;;;;;;5.10;3.70;;;;;;;14.37;nan;100557.19;5046996;28;20033;-84
2021/08/28 01:51:11;;;;;;;3.78;3.30;;;;;;;14.40;nan;100556.03;5036161;28;20043;-84
2021/08/28 01:53:37;;;;;;;2.83;2.25;;;;;;;14.44;nan;100557.31;5054053;28;20401;-84
2021/08/28 01:56:02;;;;;;;4.32;3.50;;;;;;;14.35;nan;100551.22;5054338;28;20079;-84
2021/08/28 01:58:29;;;;;;;5.03;4.30;;;;;;;14.36;nan;100552.03;5055360;28;20088;-84
2021/08/28 02:00:54;;;;;;;6.03;4.75;;;;;;;14.27;nan;100550.44;5055984;28;20120;-83
2021/08/28 02:03:19;;;;;;;5.43;4.18;;;;;;;14.23;nan;100552.63;5052231;28;20060;-83
2021/08/28 02:05:48;;;;;;;5.60;4.57;;;;;;;14.18;nan;100547.84;5048467;28;20143;-82
2021/08/28 02:08:25;;;;;;;5.90;5.00;;;;;;;14.08;nan;100552.53;5036319;28;20027;-83
2021/08/28 02:10:59;;;;;;;6.05;4.75;;;;;;;14.02;nan;100556.72;5028638;28;20409;-84
2021/08/28 02:13:32;;;;;;;5.47;4.78;;;;;;;14.02;nan;100553.22;5032949;28;20032;-83
2021/08/28 02:16:14;;;;;;;6.80;5.75;;;;;;;13.99;nan;100551.75;5054276;28;20024;-84
2021/08/28 02:18:52;;;;;;;7.07;5.43;;;;;;;13.98;nan;100552.75;5036148;28;20025;-82
2021/08/28 02:21:20;;;;;;;7.15;5.53;;;;;;;13.88;nan;100551.31;5028916;28;20035;-83
2021/08/28 02:23:50;;;;;;;;;;;;;;;13.82;nan;100552.81;5054680;28;20025;-84
2021/08/28 02:26:22;;;;;;;7.68;5.93;;;;;;;13.75;nan;100558.00;5057059;28;20007;-83
2021/08/28 02:28:49;;;;;;;;;;;;;;;13.69;nan;100560.50;5052670;28;20127;-83
2021/08/28 02:31:17;;;;;;;6.65;6.00;;;;;;;13.64;nan;100557.53;5032981;28;19923;-82
2021/08/28 02:33:43;;;;;;;7.30;6.60;;;;;;;13.56;nan;100547.75;5055465;28;20036;-82
2021/08/28 02:36:11;;;;;;;7.82;6.18;;;;;;;13.53;nan;100556.88;5033063;28;20107;-85
2021/08/28 02:38:37;;;;;;;7.43;5.85;;;;;;;13.56;nan;100553.91;5051934;28;20039;-83
2021/08/28 02:41:04;;;;;;;6.53;5.65;;;;;;;13.63;nan;100555.88;5050103;28;20033;-83
2021/08/28 02:43:30;;;;;;;6.63;5.88;;;;;;;13.66;nan;100548.41;5047427;28;20582;-83
2021/08/28 02:45:56;;;;;;;6.75;5.60;;;;;;;13.71;nan;100553.19;5033808;28;20116;-84
2021/08/28 02:48:26;;;;;;;6.82;5.55;;;;;;;13.75;nan;100550.03;5037724;28;20049;-84
2021/08/28 02:50:53;;;;;;;6.32;5.15;;;;;;;13.80;nan;100552.19;5041963;28;20571;-83
2021/08/28 02:53:20;;;;;;;8.40;6.57;;;;;;;13.81;nan;100554.63;5035311;28;20159;-84
2021/08/28 02:55:48;;;;;;;6.53;5.75;;;;;;;13.83;nan;100551.81;5053526;28;20041;-83
2021/08/28 02:58:14;;;;;;;6.75;5.65;;;;;;;13.85;nan;100560.47;5050504;28;20025;-82
2021/08/28 03:00:42;;;;;;;7.85;6.97;;;;;;;13.87;nan;100560.25;5051007;28;20033;-83
2021/08/28 03:03:07;;;;;;;8.27;7.22;;;;;;;13.83;nan;100556.31;5034047;28;20090;-83
2021/08/28 03:05:34;;;;;;;7.32;6.38;;;;;;;13.80;nan;100550.34;5034116;28;20582;-83
2021/08/28 03:07:59;;;;;;;7.35;6.50;;;;;;;13.78;nan;100555.00;5035161;28;20098;-82
2021/08/28 03:10:25;;;;;;;6.32;5.63;;;;;;;13.86;nan;100562.09;5038616;28;20116;-86
2021/08/28 03:12:51;;;;;;;6.78;5.75;;;;;;;13.89;nan;100559.09;5057870;28;20102;-85
2021/08/28 03:15:16;;;;;;;7.30;6.38;;;;;;;13.90;nan;100559.94;5057302;28;20036;-84
2021/08/28 03:17:42;;;;;;;6.88;5.82;;;;;;;13.90;nan;100559.94;5056276;28;20039;-82
2021/08/28 03:20:10;;;;;;;6.68;5.97;;;;;;;13.94;nan;100559.44;5056322;28;20033;-84
2021/08/28 03:22:38;;;;;;;6.32;5.40;;;;;;;14.00;nan;100558.72;5056350;28;20079;-83
2021/08/28 03:25:05;;;;;;;6.18;5.43;;;;;;;13.99;nan;100553.56;5055471;28;20132;-85
2021/08/28 03:27:32;;;;;;;6.20;5.60;;;;;;;14.02;nan;100555.91;5053245;28;20472;-85
2021/08/28 03:29:58;;;;;;;6.53;5.55;;;;;;;14.04;nan;100559.22;5054335;28;20133;-84
2021/08/28 03:32:24;;;;;;;6.75;5.53;;;;;;;14.06;nan;100545.72;5037294;28;20113;-87
2021/08/28 03:34:50;;;;;;;6.68;5.80;;;;;;;14.05;nan;100552.06;5058179;28;20067;-84
2021/08/28 03:37:16;;;;;;;8.65;6.72;;;;;;;14.04;nan;100545.91;5053954;28;20384;-83
2021/08/28 03:39:42;;;;;;;6.00;5.30;;;;;;;14.04;nan;100545.91;5035538;28;20044;-84
2021/08/28 03:42:08;;;;;;;8.13;7.07;;;;;;;13.96;nan;100541.44;5053039;28;20029;-84
2021/08/28 03:44:36;;;;;;;;;;;;;;;13.89;nan;100552.94;5053454;28;20109;-83
2021/08/28 03:47:02;;;;;;;8.48;7.57;;;;;;;13.79;nan;100555.81;5035095;28;19920;-83
2021/08/28 03:49:27;;;;;;;7.57;6.70;;;;;;;13.72;nan;100550.34;5040413;28;20055;-84
2021/08/28 03:51:52;;;;;;;7.85;7.05;;;;;;;13.64;nan;100561.03;5028178;28;20513;-83
2021/08/28 03:54:18;;;;;;;8.98;7.88;;;;;;;13.55;nan;100562.03;5053271;28;20045;-86
2021/08/28 03:56:43;;;;;;;6.00;5.40;;;;;;;13.47;nan;100559.41;5052220;28;20732;-84
2021/08/28 03:59:08;;;;;;;8.93;6.50;;;;;;;13.46;nan;100563.06;5058538;28;20049;-86
2021/08/28 04:01:33;;;;;;;7.20;6.13;;;;;;;13.43;nan;100553.59;5052533;28;20032;-86
2021/08/28 04:03:59;;;;;;;5.10;4.60;;;;;;;13.47;nan;100554.09;5033462;28;20492;-83
2021/08/28 04:06:24;;;;;;;7.40;6.25;;;;;;;13.48;nan;100564.53;5043543;28;20064;-82
2021/08/28 04:08:49;;;;;;;7.78;6.50;;;;;;;13.47;nan;100557.59;5075452;28;20045;-83
2021/08/28 04:11:15;;;;;;;8.77;7.70;;;;;;;13.46;nan;100565.72;5072061;28;20049;-84
2021/08/28 04:13:41;;;;;;;9.90;7.43;;;;;;;13.46;nan;100563.06;5066981;28;20029;-83
2021/08/28 04:16:06;;;;;;;6.97;6.00;;;;;;;13.46;nan;100561.22;5067362;28;20037;-83
2021/08/28 04:18:31;;;;;;;7.05;6.03;;;;;;;13.46;nan;100565.72;5065020;28;20037;-84
2021/08/28 04:20:57;;;;;;;7.90;7.10;;;;;;;13.43;nan;100561.56;5047178;28;20485;-84
2021/08/28 04:23:22;;;;;;;9.30;7.03;;;;;;;13.42;nan;100564.38;5046029;28;20033;-82
2021/08/28 04:25:47;;;;;;;8.95;7.57;;;;;;;13.38;nan;100559.41;5044369;28;20106;-83
2021/08/28 04:28:13;;;;;;;6.90;6.20;;;;;;;13.42;nan;100562.59;5044041;28;20097;-83
2021/08/28 04:30:38;;;;;;;6.35;5.50;;;;;;;13.47;nan;100559.41;5041351;28;20029;-83
2021/08/28 04:33:04;;;;;;;7.05;6.30;;;;;;;13.46;nan;100558.56;5047512;28;20058;-83
2021/08/28 04:35:29;;;;;;;7.35;6.65;;;;;;;13.43;nan;100563.41;5053558;28;20037;-82
2021/08/28 04:37:55;;;;;;;7.85;6.25;;;;;;;13.41;nan;100563.56;5027352;28;20056;-82
2021/08/28 04:40:20;;;;;;;8.27;7.20;;;;;;;13.38;nan;100561.25;5039199;28;20033;-82
2021/08/28 04:42:45;;;;;;;9.48;8.20;;;;;;;13.31;nan;100566.41;5034305;28;20029;-81
2021/08/28 04:45:11;;;;;;;8.80;7.90;;;;;;;13.24;nan;100573.34;5034009;28;20045;-83
2021/08/28 04:47:36;;;;;;;8.32;7.38;;;;;;;13.21;nan;100575.53;5048326;28;20499;-82
2021/08/28 04:50:02;;;;;;;8.48;7.45;;;;;;;13.15;nan;100575.19;5061142;28;20112;-84
2021/08/28 04:52:28;;;;;;;9.43;7.85;;;;;;;13.12;nan;100586.13;5033668;28;20074;-81
2021/08/28 04:54:53;;;;;;;8.02;7.22;;;;;;;13.13;nan;100579.00;5051650;28;20037;-82
2021/08/28 04:57:19;;;;;;;9.48;8.45;;;;;;;13.13;nan;100586.97;5041057;28;20067;-83
2021/08/28 04:59:44;;;;;;;8.27;6.90;;;;;;;13.14;nan;100592.13;5053253;28;20086;-83
2021/08/28 05:02:09;;;;;;;8.73;7.70;;;;;;;13.16;nan;100589.31;5051665;28;20037;-83
2021/08/28 05:04:35;;;;;;;11.10;7.78;;;;;;;13.18;nan;100588.13;5052375;28;20029;-82
2021/08/28 05:07:01;;;;;;;8.73;7.30;;;;;;;13.24;nan;100596.44;5034433;28;20056;-82
2021/08/28 05:09:26;;;;;;;8.45;7.50;;;;;;;13.31;nan;100600.94;5046572;28;20052;-84
2021/08/28 05:11:51;;;;;;;10.05;7.88;;;;;;;13.34;nan;100605.06;5058691;28;20037;-84
2021/08/28 05:14:17;;;;;;;10.00;7.88;;;;;;;13.37;nan;100592.31;5058446;28;20102;-84
2021/08/28 05:16:42;;;;;;;9.02;8.13;;;;;;;13.42;nan;100598.91;5051364;28;20041;-84
2021/08/28 05:19:08;;;;;;;9.40;7.93;;;;;;;13.48;nan;100598.25;5042707;28;20038;-83
2021/08/28 05:21:33;;;;;;;8.00;7.15;;;;;;;13.55;nan;100599.22;5045663;28;20044;-82
2021/08/28 05:23:58;;;;;;;9.35;7.45;;;;;;;13.63;nan;100599.19;5034455;28;20101;-83
2021/08/28 05:26:24;;;;;;;8.13;6.60;;;;;;;13.69;nan;100603.84;5035235;28;20051;-84
2021/08/28 05:28:50;;;;;;;7.22;6.53;;;;;;;13.76;nan;100602.16;5052100;28;20041;-85
2021/08/28 05:31:15;;;;;;;8.43;7.50;;;;;;;13.83;nan;100601.50;5051242;28;20469;-84
2021/08/28 05:33:41;;;;;;;7.47;6.38;;;;;;;13.91;nan;100602.28;5052615;28;20033;-84
2021/08/28 05:36:07;;;;;;;7.78;6.97;;;;;;;14.01;nan;100607.38;5052675;28;20033;-84
2021/08/28 05:38:32;;;;;;;5.20;4.70;;;;;;;14.09;nan;100606.56;5050534;28;20428;-83
2021/08/28 05:40:57;;;;;;;5.10;4.60;;;;;;;14.15;nan;100612.00;5052183;28;20057;-84
2021/08/28 05:43:23;;;;;;;4.30;3.90;;;;;;;14.24;nan;100618.94;5059829;28;20456;-84
2021/08/28 05:45:48;;;;;;;4.38;3.97;;;;;;;14.26;nan;100605.47;5053088;28;20048;-84
2021/08/28 05:48:14;;;;;;;4.53;4.10;;;;;;;14.28;nan;100608.78;5050720;28;20408;-84
2021/08/28 05:50:39;;;;;;;6.63;5.05;;;;;;;14.33;nan;100624.22;5037850;28;20498;-84
2021/08/28 05:53:04;;;;;;;;;;;;;;;14.37;nan;100621.06;5039108;28;20112;-82
2021/08/28 05:55:29;;;;;;;6.67;5.97;;;;;;;14.40;nan;100620.69;5055708;28;19920;-81
2021/08/28 05:57:55;;;;;;;8.68;7.45;;;;;;;14.41;nan;100622.34;5036266;28;20028;-84
2021/08/28 06:00:20;;;;;;;9.38;7.88;;;;;;;14.47;nan;100620.81;5029654;28;21091;-84
2021/08/28 06:02:45;;;;;;;8.93;6.95;;;;;;;14.49;nan;100616.16;5038190;28;20033;-85
2021/08/28 06:05:12;;;;;;;7.47;6.50;;;;;;;14.56;nan;100622.47;5031401;28;20247;-85
2021/08/28 06:07:37;;;;;;;8.98;7.65;;;;;;;14.59;nan;100624.78;5055791;28;20033;-85
2021/08/28 06:10:05;;;;;;;10.68;9.35;;;;;;;14.60;nan;100626.41;5038661;28;20033;-84
2021/08/28 06:12:32;;;;;;;9.57;8.57;;;;;;;14.70;nan;100626.19;5057495;28;20566;-83
2021/08/28 06:14:57;;;;;;;11.23;9.93;;;;;;;14.64;nan;100614.44;5062557;28;20425;-84
2021/08/28 06:17:23;;;;;;;8.80;7.90;;;;;;;14.65;nan;100621.41;5056030;28;20032;-84
2021/08/28 06:19:48;;;;;;;7.85;7.05;;;;;;;14.72;nan;100623.38;5038430;28;20037;-82
2021/08/28 06:22:13;;;;;;;7.03;6.32;;;;;;;14.76;nan;100619.34;5055069;28;20051;-82
2021/08/28 06:24:39;;;;;;;9.57;8.13;;;;;;;14.70;nan;100625.38;5035470;28;20059;-83
2021/08/28 06:27:05;;;;;;;11.38;9.48;;;;;;;14.64;nan;100630.41;5037276;28;20112;-83
2021/08/28 06:29:30;;;;;;;8.10;6.63;;;;;;;14.70;nan;100625.38;5037248;28;20128;-83
2021/08/28 06:31:56;;;;;;;7.72;6.93;;;;;;;14.77;nan;100632.47;5037261;28;20040;-83
2021/08/28 06:34:22;;;;;;;9.30;8.02;;;;;;;14.81;nan;100623.13;5061428;28;20083;-83
2021/08/28 06:36:48;;;;;;;10.00;8.88;;;;;;;14.79;nan;100624.31;5037549;28;20033;-85
2021/08/28 06:39:13;;;;;;;8.63;7.53;;;;;;;14.74;nan;100621.34;5056861;28;20029;-82
2021/08/28 06:41:38;;;;;;;9.30;8.15;;;;;;;14.67;nan;100621.22;5037671;28;20144;-83
2021/08/28 06:44:04;;;;;;;8.07;6.70;;;;;;;14.70;nan;100626.19;5056132;28;20124;-84
2021/08/28 06:46:30;;;;;;;7.22;6.53;;;;;;;14.75;nan;100620.34;5058218;28;20660;-82
2021/08/28 06:48:56;;;;;;;8.45;7.40;;;;;;;14.78;nan;100622.66;5060673;28;20059;-84
2021/08/28 06:51:21;;;;;;;7.55;6.03;;;;;;;14.74;nan;100624.84;5046602;28;20044;-83
2021/08/28 06:53:49;;;;;;;6.53;5.80;;;;;;;14.79;nan;100624.31;5063185;28;20109;-82
2021/08/28 06:56:14;;;;;;;6.75;6.05;;;;;;;14.85;nan;100615.63;5047368;28;20044;-85
2021/08/28 06:58:39;;;;;;;7.13;6.18;;;;;;;14.82;nan;100624.78;5040427;28;20057;-82
2021/08/28 07:01:05;;;;;;;8.38;7.03;;;;;;;14.83;nan;100621.13;5055505;28;20040;-83
2021/08/28 07:03:30;;;;;;;8.93;6.93;;;;;;;14.84;nan;100612.13;5033289;28;20039;-82
2021/08/28 07:05:55;;;;;;;7.28;6.32;;;;;;;14.79;nan;100611.81;5056934;28;20033;-82
2021/08/28 07:08:21;;;;;;;8.43;6.88;;;;;;;14.87;nan;100618.91;5037807;28;20433;-83
2021/08/28 07:10:46;;;;;;;7.80;6.60;;;;;;;14.88;nan;100609.94;5041570;28;20036;-83
2021/08/28 07:13:12;;;;;;;7.03;6.28;;;;;;;14.81;nan;100616.97;5059175;28;20486;-81
2021/08/28 07:15:38;;;;;;;8.20;6.80;;;;;;;14.74;nan;100602.72;5029429;28;20108;-82
2021/08/28 07:18:03;;;;;;;7.93;6.88;;;;;;;14.71;nan;100606.56;5057123;28;20075;-83
2021/08/28 07:20:28;;;;;;;7.68;6.88;;;;;;;14.76;nan;100608.72;5059346;28;20037;-82
2021/08/28 07:22:54;;;;;;;8.38;7.47;;;;;;;14.82;nan;100598.16;5038809;28;20064;-83
2021/08/28 07:25:19;;;;;;;7.72;6.93;;;;;;;14.86;nan;100606.63;5045611;28;20033;-85
2021/08/28 07:27:44;;;;;;;7.13;6.07;;;;;;;14.93;nan;100604.91;5058906;28;20051;-82
2021/08/28 07:30:10;;;;;;;6.20;5.60;;;;;;;14.99;nan;100596.22;5052838;28;20043;-82
2021/08/28 07:32:36;;;;;;;6.55;5.82;;;;;;;15.00;nan;100594.38;5059290;28;20028;-80
2021/08/28 07:35:02;;;;;;;7.28;5.97;;;;;;;14.91;nan;100601.59;5029285;28;20557;-81
2021/08/28 07:37:27;;;;;;;7.07;6.28;;;;;;;14.87;nan;100608.28;5053524;28;20033;-81
2021/08/28 07:39:53;;;;;;;7.57;6.60;;;;;;;14.80;nan;100604.66;5028469;28;20033;-81
2021/08/28 07:42:18;;;;;;;8.05;7.00;;;;;;;14.76;nan;100614.84;5052256;28;20138;-84
2021/08/28 07:44:45;;;;;;;7.47;6.78;;;;;;;14.73;nan;100601.91;5053362;28;20517;-81
2021/08/28 07:47:10;;;;;;;9.73;7.85;;;;;;;14.79;nan;100614.50;5053447;28;20036;-83
2021/08/28 07:49:35;;;;;;;9.40;6.50;;;;;;;14.78;nan;100606.69;5056341;28;20506;-82
2021/08/28 07:52:01;;;;;;;7.13;6.03;;;;;;;14.87;nan;100610.94;5035849;28;20390;-81
2021/08/28 07:54:26;;;;;;;7.13;6.43;;;;;;;14.90;nan;100610.59;5052645;28;20569;-81
2021/08/28 07:56:51;;;;;;;7.57;6.55;;;;;;;14.94;nan;100619.03;5056756;28;20533;-81
2021/08/28 07:59:17;;;;;;;7.03;6.30;;;;;;;15.00;nan;100611.19;5032733;28;20032;-82
2021/08/28 08:01:42;;;;;;;8.05;7.13;;;;;;;14.91;nan;100614.91;5036129;28;20433;-81
2021/08/28 08:04:07;;;;;;;5.47;4.97;;;;;;;14.90;nan;100617.72;5050602;28;20430;-81
2021/08/28 08:06:32;;;;;;;6.85;5.57;;;;;;;14.97;nan;100627.50;5051254;28;20075;-84
2021/08/28 08:08:58;;;;;;;6.90;6.20;;;;;;;14.97;nan;100626.66;5029704;28;20402;-81
2021/08/28 08:11:23;;;;;;;6.07;5.40;;;;;;;14.89;nan;100629.41;5062884;28;20053;-82
2021/08/28 08:13:48;;;;;;;8.32;6.57;;;;;;;15.00;nan;100626.34;5034428;28;20029;-84
2021/08/28 08:16:14;;;;;;;6.90;6.20;;;;;;;15.03;nan;100632.13;5050516;28;20033;-83
2021/08/28 08:18:39;;;;;;;7.03;6.10;;;;;;;15.13;nan;100631.88;5034642;28;20079;-82
2021/08/28 08:21:05;;;;;;;7.85;6.05;;;;;;;15.09;nan;100630.59;5061602;28;20314;-85
2021/08/28 08:23:30;;;;;;;7.18;6.18;;;;;;;15.13;nan;100626.53;5053381;28;20040;-83
2021/08/28 08:25:56;;;;;;;7.78;6.07;;;;;;;15.09;nan;100630.59;5033085;28;20063;-84
2021/08/28 08:28:21;;;;;;;7.03;5.57;;;;;;;15.05;nan;100634.59;5051772;28;20049;-84
2021/08/28 08:30:46;;;;;;;6.90;5.93;;;;;;;15.03;nan;100623.31;5052396;28;20036;-83
2021/08/28 08:33:12;;;;;;;7.93;6.78;;;;;;;15.01;nan;100620.81;5050598;28;20398;-82
2021/08/28 08:35:37;;;;;;;5.40;4.72;;;;;;;15.00;nan;100621.81;5051316;28;20417;-84
2021/08/28 08:38:03;;;;;;;5.20;4.60;;;;;;;15.16;nan;100631.53;5033215;28;20040;-85
2021/08/28 08:40:30;;;;;;;5.18;3.88;;;;;;;15.24;nan;100625.31;5044494;28;20128;-84
2021/08/28 08:42:56;;;;;;;5.20;4.40;;;;;;;15.27;nan;100627.59;5051131;28;20494;-84
2021/08/28 08:45:25;;;;;;;5.13;4.40;;;;;;;15.35;nan;100632.00;5051598;28;20040;-84
2021/08/28 08:47:51;;;;;;;5.95;5.10;;;;;;;15.26;nan;100626.78;5047382;28;20054;-83
2021/08/28 08:50:19;;;;;;;4.20;3.50;;;;;;;15.28;nan;100629.28;5052606;28;20395;-83
2021/08/28 08:52:48;;;;;;;4.28;3.03;;;;;;;15.53;nan;100631.69;5053389;28;20082;-83
2021/08/28 08:55:14;;;;;;;4.95;4.18;;;;;;;15.55;nan;100629.69;5064252;28;20079;-82
2021/08/28 08:57:40;;;;;;;5.22;4.05;;;;;;;15.57;nan;100630.34;5061393;28;20040;-85
2021/08/28 09:00:06;;;;;;;5.55;4.15;;;;;;;15.48;nan;100630.41;5071760;28;20029;-83
2021/08/28 09:02:32;;;;;;;3.38;2.50;;;;;;;15.48;nan;100633.06;5061986;28;20032;-82
2021/08/28 09:04:58;;;;;;;4.35;3.03;;;;;;;15.76;nan;100632.50;5067861;28;20029;-83
2021/08/28 09:07:23;;;;;;;2.23;1.93;;;;;;;15.83;nan;100627.25;5063101;28;20425;-83
2021/08/28 09:09:48;;;;;;;2.40;1.90;;;;;;;15.79;nan;100631.28;5059165;28;20033;-85
2021/08/28 09:12:13;;;;;;;2.10;1.50;;;;;;;15.79;nan;100628.63;5034787;28;20037;-83
2021/08/28 09:14:40;;;;;;;3.75;2.78;;;;;;;15.73;nan;100629.34;5038175;28;20041;-84
2021/08/28 09:17:16;;;;;;;3.70;2.30;;;;;;;15.81;nan;100624.78;5051848;28;20091;-84
2021/08/28 09:19:42;;;;;;;2.72;2.20;;;;;;;16.05;nan;100637.00;5051733;28;20057;-85
2021/08/28 09:22:20;;;;;;;2.50;2.20;;;;;;;16.27;nan;100629.88;5035256;28;20300;-84
2021/08/28 09:24:46;;;;;;;2.65;2.03;;;;;;;16.19;nan;100629.19;5052656;28;20040;-85
2021/08/28 09:27:12;;;;;;;3.20;2.70;;;;;;;16.02;nan;100632.03;5055930;28;20124;-84
2021/08/28 09:29:43;;;;;;;2.50;2.00;;;;;;;16.07;nan;100636.81;5055432;28;20060;-82
2021/08/28 09:32:10;;;;;;;2.53;2.17;;;;;;;16.21;nan;100635.97;5056103;28;20025;-83
2021/08/28 09:34:36;;;;;;;3.97;2.55;;;;;;;16.29;nan;100635.84;5053656;28;20045;-83
2021/08/28 09:37:07;;;;;;;2.58;2.00;;;;;;;16.34;nan;100636.13;5044490;28;20036;-85
2021/08/28 09:39:44;;;;;;;2.97;2.45;;;;;;;16.42;nan;100642.38;5047319;28;20025;-85
2021/08/28 09:42:21;;;;;;;3.10;2.03;;;;;;;16.40;nan;100633.72;5059623;28;20075;-85
2021/08/28 09:44:47;;;;;;;1.70;1.50;;;;;;;16.60;nan;100645.47;5029262;28;20404;-85
2021/08/28 09:47:23;;;;;;;3.08;1.83;;;;;;;16.75;nan;100640.88;5053751;28;20446;-85
2021/08/28 09:49:50;;;;;;;2.85;2.10;;;;;;;16.81;nan;100646.53;5038994;28;20394;-85
2021/08/28 09:52:22;;;;;;;2.08;1.63;;;;;;;16.89;nan;100644.56;5035794;28;20029;-85
2021/08/28 09:54:48;;;;;;;2.03;1.75;;;;;;;16.85;nan;100647.81;5032924;28;20533;-84
2021/08/28 09:57:13;;;;;;;2.45;2.05;;;;;;;16.98;nan;100638.06;5026993;28;20029;-84
2021/08/28 09:59:42;;;;;;;1.85;1.48;;;;;;;16.98;nan;100637.25;5036254;28;20033;-84
2021/08/28 10:02:14;;;;;;;2.83;1.30;;;;;;;17.12;nan;100638.22;5052666;28;20116;-83
2021/08/28 10:04:54;;;;;;;2.92;1.73;;;;;;;17.22;nan;100640.56;5055014;28;20052;-83
2021/08/28 10:07:22;;;;;;;1.88;1.52;;;;;;;17.23;nan;100639.53;5034792;28;20060;-83
2021/08/28 10:09:53;;;;;;;2.13;1.40;;;;;;;17.33;nan;100640.88;5052210;28;20032;-85
2021/08/28 10:12:19;;;;;;;;;;;;;;;17.60;nan;100646.41;5055403;28;20075;-83
2021/08/28 10:14:46;;;;;;;2.60;2.13;;;;;;;17.73;nan;100640.31;5043956;28;19936;-83
2021/08/28 10:17:12;;;;;;;2.40;2.00;;;;;;;17.73;nan;100649.19;5056391;28;20112;-84
2021/08/28 10:19:37;;;;;;;2.45;1.75;;;;;;;18.04;nan;100638.06;5039383;28;20065;-84
2021/08/28 10:22:03;;;;;;;2.58;2.08;;;;;;;18.46;nan;100638.84;5058190;28;20048;-84
2021/08/28 10:24:29;;;;;;;4.32;2.25;;;;;;;19.05;nan;100636.56;5056519;28;20074;-85
2021/08/28 10:26:55;;;;;;;2.47;1.90;;;;;;;19.68;nan;100645.00;5055722;28;20032;-84
2021/08/28 10:29:21;;;;;;;2.47;1.58;;;;;;;19.72;nan;100640.06;5062778;28;20043;-83
2021/08/28 10:31:50;;;;;;;;;;;;;;;19.71;nan;100628.50;5053730;28;20102;-84
2021/08/28 10:34:16;;;;;;;2.60;1.60;;;;;;;19.71;nan;100625.81;5038914;28;19924;-83
2021/08/28 10:36:43;;;;;;;2.40;1.55;;;;;;;19.46;nan;100620.25;5051518;28;20029;-83
2021/08/28 10:39:09;;;;;;;2.25;1.45;;;;;;;19.27;nan;100613.03;5051987;28;20033;-82
2021/08/28 10:41:37;;;;;;;2.35;1.60;;;;;;;19.58;nan;100623.13;5056203;28;20106;-83
2021/08/28 10:44:03;;;;;;;3.80;2.15;;;;;;;19.30;nan;100618.81;5048378;28;20041;-83
2021/08/28 10:46:32;;;;;;;3.28;1.58;;;;;;;19.18;nan;100615.09;5053467;28;20085;-82
2021/08/28 10:49:00;;;;;;;2.50;1.50;;;;;;;19.39;nan;100626.66;5043329;28;20522;-83
2021/08/28 10:51:34;;;;;;;3.10;1.60;;;;;;;19.38;nan;100615.13;5042101;28;20044;-82
2021/08/28 10:54:03;;;;;;;;;;;;;;;19.18;nan;100617.78;5052942;28;20037;-83
2021/08/28 10:56:45;;;;;;;1.92;1.40;;;;;;;19.02;nan;100613.66;5058798;28;19967;-82
2021/08/28 10:59:30;;;;;;;2.15;1.38;;;;;;;18.89;nan;100621.69;5035885;28;20037;-81
2021/08/28 11:01:59;;;;;;;1.95;1.40;;;;;;;18.85;nan;100623.09;5054509;28;20033;-82
2021/08/28 11:04:40;;;;;;;3.88;1.60;;;;;;;19.16;nan;100625.19;5048936;28;20056;-81
2021/08/28 11:07:21;;;;;;;;;;;;;;;19.02;nan;100624.38;5028414;28;20037;-83
2021/08/28 11:10:07;;;;;;;2.58;2.00;;;;;;;18.44;nan;100629.38;5043072;28;19970;-81
2021/08/28 11:13:02;;;;;;;1.70;1.30;;;;;;;18.25;nan;100625.59;5047044;28;20095;-85
2021/08/28 11:15:27;;;;;;;3.03;1.60;;;;;;;18.32;nan;100626.44;5029891;28;20040;-82
2021/08/28 11:17:54;;;;;;;2.15;1.33;;;;;;;18.38;nan;100622.97;5053905;28;20031;-82
2021/08/28 11:20:27;;;;;;;2.45;1.48;;;;;;;18.31;nan;100624.81;5053121;28;20506;-81
2021/08/28 11:22:54;;;;;;;1.70;1.35;;;;;;;18.25;nan;100618.38;5028778;28;20454;-82
2021/08/28 11:25:25;;;;;;;2.78;1.20;;;;;;;18.26;nan;100624.59;5058243;28;20124;-81
2021/08/28 11:27:55;;;;;;;1.05;0.90;;;;;;;18.45;nan;100625.69;5049435;28;20405;-82
2021/08/28 11:30:39;;;;;;;1.48;1.25;;;;;;;18.58;nan;100619.53;5035488;28;20045;-80
2021/08/28 11:33:09;;;;;;;1.70;1.00;;;;;;;18.46;nan;100614.75;5053281;28;20455;-81
2021/08/28 11:35:40;;;;;;;2.00;1.30;;;;;;;18.32;nan;100615.75;5053832;28;20048;-81
2021/08/28 11:38:06;;;;;;;;;;;;;;;18.30;nan;100625.81;5034101;28;20028;-82
2021/08/28 11:40:37;;;;;;;1.58;1.15;;;;;;;18.19;nan;100621.06;5053037;28;20160;-82
2021/08/28 11:43:04;;;;;;;2.42;1.45;;;;;;;18.35;nan;100618.03;5058223;28;20116;-81